sensor_id;sensor_type;location;lat;lon;timestamp;temperature;humidity
33428;DHT22;19769;48.150;16.306;2023-02-02T00:01:49;4.70;99.90
33428;DHT22;19769;48.150;16.306;2023-02-02T00:04:16;4.60;99.90
33428;DHT22;19769;48.150;16.306;2023-02-02T00:06:42;4.40;99.90
33428;DHT22;19769;48.150;16.306;2023-02-02T00:09:08;4.20;99.90
33428;DHT22;19769;48.150;16.306;2023-02-02T00:11:34;4.10;99.90
33428;DHT22;19769;48.150;16.306;2023-02-02T00:14:00;4.00;99.90
33428;DHT22;19769;48.150;16.306;2023-02-02T00:18:55;3.90;99.90
33428;DHT22;19769;48.150;16.306;2023-02-02T00:21:22;3.90;99.90
33428;DHT22;19769;48.150;16.306;2023-02-02T00:23:47;3.90;99.90
33428;DHT22;19769;48.150;16.306;2023-02-02T00:26:13;3.90;99.90
33428;DHT22;19769;48.150;16.306;2023-02-02T00:28:39;3.90;99.90
33428;DHT22;19769;48.150;16.306;2023-02-02T00:31:05;3.80;99.90
33428;DHT22;19769;48.150;16.306;2023-02-02T00:33:30;3.80;99.90
33428;DHT22;19769;48.150;16.306;2023-02-02T00:35:56;3.60;99.90
33428;DHT22;19769;48.150;16.306;2023-02-02T00:38:22;3.70;99.90
33428;DHT22;19769;48.150;16.306;2023-02-02T00:40:47;3.70;99.90
33428;DHT22;19769;48.150;16.306;2023-02-02T00:43:14;3.80;99.90
33428;DHT22;19769;48.150;16.306;2023-02-02T00:45:40;3.70;99.90
33428;DHT22;19769;48.150;16.306;2023-02-02T00:48:05;3.80;99.90
33428;DHT22;19769;48.150;16.306;2023-02-02T00:55:24;3.80;99.90
33428;DHT22;19769;48.150;16.306;2023-02-02T00:57:50;3.80;99.90
33428;DHT22;19769;48.150;16.306;2023-02-02T04:18:43;4.00;99.90
33428;DHT22;19769;48.150;16.306;2023-02-02T04:21:09;4.40;99.90
33428;DHT22;19769;48.150;16.306;2023-02-02T04:23:35;4.40;99.90
33428;DHT22;19769;48.150;16.306;2023-02-02T05:41:33;4.30;99.90
33428;DHT22;19769;48.150;16.306;2023-02-02T05:43:58;4.60;99.90
33428;DHT22;19769;48.150;16.306;2023-02-02T05:46:24;4.50;99.90
33428;DHT22;19769;48.150;16.306;2023-02-02T05:48:50;4.50;99.90
33428;DHT22;19769;48.150;16.306;2023-02-02T05:51:20;4.50;99.90
33428;DHT22;19769;48.150;16.306;2023-02-02T05:53:46;4.40;99.90
33428;DHT22;19769;48.150;16.306;2023-02-02T05:56:12;4.50;99.90
33428;DHT22;19769;48.150;16.306;2023-02-02T05:58:40;4.40;99.90
33428;DHT22;19769;48.150;16.306;2023-02-02T06:01:06;4.40;99.90
33428;DHT22;19769;48.150;16.306;2023-02-02T06:03:31;4.30;99.90
33428;DHT22;19769;48.150;16.306;2023-02-02T06:05:57;4.30;99.90
33428;DHT22;19769;48.150;16.306;2023-02-02T06:08:23;4.30;99.90
33428;DHT22;19769;48.150;16.306;2023-02-02T06:10:49;4.30;99.90
33428;DHT22;19769;48.150;16.306;2023-02-02T06:13:15;4.30;99.90
33428;DHT22;19769;48.150;16.306;2023-02-02T06:15:40;4.30;99.90
33428;DHT22;19769;48.150;16.306;2023-02-02T06:18:07;4.30;99.90
33428;DHT22;19769;48.150;16.306;2023-02-02T06:20:33;4.30;99.90
33428;DHT22;19769;48.150;16.306;2023-02-02T06:22:59;4.30;99.90
33428;DHT22;19769;48.150;16.306;2023-02-02T06:25:25;4.30;99.90
33428;DHT22;19769;48.150;16.306;2023-02-02T06:27:54;4.30;99.90
33428;DHT22;19769;48.150;16.306;2023-02-02T06:30:19;4.30;99.90
33428;DHT22;19769;48.150;16.306;2023-02-02T06:32:45;4.30;99.90
33428;DHT22;19769;48.150;16.306;2023-02-02T06:35:11;4.30;99.90
33428;DHT22;19769;48.150;16.306;2023-02-02T06:37:36;4.20;99.90
33428;DHT22;19769;48.150;16.306;2023-02-02T06:40:04;4.30;99.90
33428;DHT22;19769;48.150;16.306;2023-02-02T06:42:30;4.30;99.90
33428;DHT22;19769;48.150;16.306;2023-02-02T06:44:56;4.30;99.90
33428;DHT22;19769;48.150;16.306;2023-02-02T06:47:22;4.50;99.90
33428;DHT22;19769;48.150;16.306;2023-02-02T06:49:47;4.40;99.90
33428;DHT22;19769;48.150;16.306;2023-02-02T06:52:13;4.40;99.90
33428;DHT22;19769;48.150;16.306;2023-02-02T06:54:39;4.50;99.90
33428;DHT22;19769;48.150;16.306;2023-02-02T06:57:04;4.50;99.90
33428;DHT22;19769;48.150;16.306;2023-02-02T06:59:30;4.50;99.90
33428;DHT22;19769;48.150;16.306;2023-02-02T07:14:06;4.60;99.90
33428;DHT22;19769;48.150;16.306;2023-02-02T09:16:00;4.90;99.90
33428;DHT22;19769;48.150;16.306;2023-02-02T09:18:26;5.90;99.90
33428;DHT22;19769;48.150;16.306;2023-02-02T09:20:52;5.90;99.90
33428;DHT22;19769;48.150;16.306;2023-02-02T09:23:18;6.00;99.90
33428;DHT22;19769;48.150;16.306;2023-02-02T09:25:43;6.10;99.90
33428;DHT22;19769;48.150;16.306;2023-02-02T09:28:09;6.10;99.90
33428;DHT22;19769;48.150;16.306;2023-02-02T09:30:34;6.10;99.90
33428;DHT22;19769;48.150;16.306;2023-02-02T09:33:00;6.10;99.90
33428;DHT22;19769;48.150;16.306;2023-02-02T09:35:26;6.10;99.90
33428;DHT22;19769;48.150;16.306;2023-02-02T09:37:52;5.90;99.90
33428;DHT22;19769;48.150;16.306;2023-02-02T09:40:18;5.90;99.90
33428;DHT22;19769;48.150;16.306;2023-02-02T09:42:53;6.00;99.90
33428;DHT22;19769;48.150;16.306;2023-02-02T09:45:31;6.00;99.90
33428;DHT22;19769;48.150;16.306;2023-02-02T09:48:04;6.00;99.90
33428;DHT22;19769;48.150;16.306;2023-02-02T09:50:41;6.00;99.90
33428;DHT22;19769;48.150;16.306;2023-02-02T09:53:19;6.10;99.90
33428;DHT22;19769;48.150;16.306;2023-02-02T09:55:48;6.20;99.90
33428;DHT22;19769;48.150;16.306;2023-02-02T09:58:19;6.30;99.90
33428;DHT22;19769;48.150;16.306;2023-02-02T10:03:18;6.40;99.90
33428;DHT22;19769;48.150;16.306;2023-02-02T10:05:52;6.20;99.90
33428;DHT22;19769;48.150;16.306;2023-02-02T10:08:33;6.20;99.90
33428;DHT22;19769;48.150;16.306;2023-02-02T10:10:59;6.30;99.90
33428;DHT22;19769;48.150;16.306;2023-02-02T10:13:32;6.20;99.90
33428;DHT22;19769;48.150;16.306;2023-02-02T10:16:05;6.30;99.90
33428;DHT22;19769;48.150;16.306;2023-02-02T10:26:03;6.30;99.90
33428;DHT22;19769;48.150;16.306;2023-02-02T11:03:11;7.00;99.90
33428;DHT22;19769;48.150;16.306;2023-02-02T11:05:37;6.90;99.90
33428;DHT22;19769;48.150;16.306;2023-02-02T11:13:23;6.80;99.90
33428;DHT22;19769;48.150;16.306;2023-02-02T11:42:43;6.50;99.90
